Hamilton, NY (13346)

10:02 AM EDT on August 28, 2014 (GMT -0400)
NonFedAWOS HAMILTON NY US SAI | Change Station
CLOSE
Current Station
Personal Weather Station
Location: Hamilton, NY
Elevation: 1136 ft
Nearby Weather Stations

Elev 1136 ft 42.83 °N, 75.54 °W | Updated 13 hours ago

Mostly Cloudy
Mostly Cloudy
60 °F
Feels Like 60 °F
N
10
Wind Variable Wind from WNW
Gusts 10 mph

Today
High -- | Low -- °F
--% Chance of Precip.
Yesterday
High -- | Low -- °F
Precip. -- in
6:22 AM 7:43 PM
Waxing Crescent, 8% visible
Pressure 29.99 in
Visibility 10.0 miles
Clouds Mostly Cloudy 1100 ft
Mostly Cloudy 6000 ft
Dew Point 54 °F
Humidity 83%
Rainfall -999.00 in
Snow Depth Not available.
UV 2 out of 12
Pollen 8.40 out of 12
PM2.5 Good
Flu Activity Not available.
METAR KRME 281353Z 31004KT 10SM BKN011 BKN060 18/15 A3000 RMK AO2 SLP155 T01780150

More Conditions Fewer Conditions

Pressure 29.99 in
Visibility 10.0 miles
Clouds Mostly Cloudy 1100 ft
Mostly Cloudy 6000 ft
Dew Point 54 °F
Humidity 83%
Rainfall -999.00 in
Snow Depth Not available.
UV 2 out of 12
Pollen 8.40 out of 12
PM2.5 Good
Flu Activity Not available.
METAR KRME 281353Z 31004KT 10SM BKN011 BKN060 18/15 A3000 RMK AO2 SLP155 T01780150

More Conditions Fewer Conditions

10-Day Weather Forecast

Almanac

Astronomy

Aug. 28, 2014 Rise Set
Actual Time 6:22 AM EDT 7:43 PM EDT
Civil Twilight 5:52 AM EDT 8:12 PM EDT
Nautical Twilight 5:17 AM EDT 8:48 PM EDT
Astronomical Twilight 4:40 AM EDT 9:25 PM EDT
Moon 9:17 AM EDT 9:00 PM EDT
Length of Visible Light 14h 19m
Length of Day
13h 21m
Tomorrow will be 2m 46s shorter.
Waxing Crescent, 8% of the Moon is Illuminated
Today
Waxing Crescent
Sep 2
First Quarter
Sep 8
Full
Sep 15
Last Quarter
Sep 24
New

Today's Extremes

State Highs State Lows

Community

WunderPhotos

Upload Photos

1,747,957 photos uploaded!

Nearby

Air Quality

  Air Quality AQ Index Pollutant
Yesterday Good
PM2.5
Yesterday Good
OZONE
Current Good
PM2.5
Thursday Good
OZONE
Thursday Good
PM2.5

Snow Depth

Station Depth Elevation
No new snow has been reported.

Earthquake Activity

City Distance Mag. Time & Date
No recent earthquake activity has been reported nearby.
Minimum magnitude displayed is 2.5.

Coastal Water Temperatures

Place Temperature
No Stations Reporting

Nearby Weather Stations